sensor_id;sensor_type;location;lat;lon;timestamp;pressure;altitude;pressure_sealevel;temperature;humidity
44001;BME280;29660;42.892;24.710;2023-06-24T00:00:10;96986.53;;;19.58;100.00
44001;BME280;29660;42.892;24.710;2023-06-24T00:05:34;96554.03;;;16.61;100.00
44001;BME280;29660;42.892;24.710;2023-06-24T00:10:56;96564.59;;;16.66;100.00
44001;BME280;29660;42.892;24.710;2023-06-24T00:16:18;96730.63;;;17.69;100.00
44001;BME280;29660;42.892;24.710;2023-06-24T00:21:48;96690.78;;;17.38;100.00
44001;BME280;29660;42.892;24.710;2023-06-24T00:27:13;96918.03;;;18.98;100.00
44001;BME280;29660;42.892;24.710;2023-06-24T00:32:35;96958.69;;;19.29;100.00
44001;BME280;29660;42.892;24.710;2023-06-24T00:37:58;96578.47;;;16.68;100.00
44001;BME280;29660;42.892;24.710;2023-06-24T00:43:21;96602.97;;;16.88;100.00
44001;BME280;29660;42.892;24.710;2023-06-24T00:48:43;96904.78;;;18.80;100.00
44001;BME280;29660;42.892;24.710;2023-06-24T00:54:05;96958.97;;;19.12;100.00
44001;BME280;29660;42.892;24.710;2023-06-24T00:59:28;96540.31;;;16.30;100.00
44001;BME280;29660;42.892;24.710;2023-06-24T01:04:54;96955.97;;;19.01;100.00
44001;BME280;29660;42.892;24.710;2023-06-24T01:10:16;96918.31;;;18.68;100.00
44001;BME280;29660;42.892;24.710;2023-06-24T01:15:38;96554.78;;;16.25;100.00
44001;BME280;29660;42.892;24.710;2023-06-24T01:37:32;96955.00;;;18.69;100.00
44001;BME280;29660;42.892;24.710;2023-06-24T01:42:57;96963.78;;;18.66;100.00
44001;BME280;29660;42.892;24.710;2023-06-24T01:48:28;96882.38;;;18.15;100.00
44001;BME280;29660;42.892;24.710;2023-06-24T01:54:06;96944.31;;;18.60;100.00
44001;BME280;29660;42.892;24.710;2023-06-24T01:59:32;96941.63;;;18.60;100.00
44001;BME280;29660;42.892;24.710;2023-06-24T02:04:56;96939.72;;;18.49;100.00
44001;BME280;29660;42.892;24.710;2023-06-24T02:10:20;96663.81;;;16.43;100.00
44001;BME280;29660;42.892;24.710;2023-06-24T02:15:45;96561.72;;;15.81;100.00
44001;BME280;29660;42.892;24.710;2023-06-24T02:21:09;96565.84;;;15.78;100.00
44001;BME280;29660;42.892;24.710;2023-06-24T02:26:32;96874.75;;;17.80;100.00
44001;BME280;29660;42.892;24.710;2023-06-24T02:31:54;96866.59;;;17.68;100.00
44001;BME280;29660;42.892;24.710;2023-06-24T02:37:17;96837.56;;;17.40;100.00
44001;BME280;29660;42.892;24.710;2023-06-24T02:42:40;96978.53;;;18.20;100.00
44001;BME280;29660;42.892;24.710;2023-06-24T02:48:03;96890.84;;;17.68;100.00
44001;BME280;29660;42.892;24.710;2023-06-24T02:53:26;96935.19;;;17.91;100.00
44001;BME280;29660;42.892;24.710;2023-06-24T02:58:50;96534.47;;;15.28;100.00
44001;BME280;29660;42.892;24.710;2023-06-24T03:04:18;96853.94;;;17.23;100.00
44001;BME280;29660;42.892;24.710;2023-06-24T03:09:42;96583.34;;;15.42;100.00
44001;BME280;29660;42.892;24.710;2023-06-24T03:15:05;97003.28;;;18.22;100.00
44001;BME280;29660;42.892;24.710;2023-06-24T03:20:28;96665.97;;;16.17;100.00
44001;BME280;29660;42.892;24.710;2023-06-24T03:25:51;97028.84;;;18.49;100.00
44001;BME280;29660;42.892;24.710;2023-06-24T03:31:14;96646.81;;;16.31;100.00
44001;BME280;29660;42.892;24.710;2023-06-24T03:36:40;96919.94;;;18.20;100.00
44001;BME280;29660;42.892;24.710;2023-06-24T03:42:02;96881.25;;;18.16;100.00
44001;BME280;29660;42.892;24.710;2023-06-24T03:47:24;96993.47;;;19.03;100.00
44001;BME280;29660;42.892;24.710;2023-06-24T03:52:47;96926.84;;;18.95;100.00
44001;BME280;29660;42.892;24.710;2023-06-24T03:58:10;96647.63;;;17.50;100.00
44001;BME280;29660;42.892;24.710;2023-06-24T04:03:33;96945.06;;;20.29;100.00
44001;BME280;29660;42.892;24.710;2023-06-24T04:08:55;96641.41;;;19.06;100.00
44001;BME280;29660;42.892;24.710;2023-06-24T04:14:17;96900.94;;;21.84;100.00
44001;BME280;29660;42.892;24.710;2023-06-24T04:19:40;96647.53;;;21.43;93.90
44001;BME280;29660;42.892;24.710;2023-06-24T04:25:04;96670.09;;;22.37;88.42
44001;BME280;29660;42.892;24.710;2023-06-24T04:30:29;96766.59;;;23.76;81.67
44001;BME280;29660;42.892;24.710;2023-06-24T04:35:51;96813.88;;;24.79;77.75
44001;BME280;29660;42.892;24.710;2023-06-24T04:41:14;96983.97;;;26.70;74.11
44001;BME280;29660;42.892;24.710;2023-06-24T04:46:36;96695.50;;;25.37;69.29
44001;BME280;29660;42.892;24.710;2023-06-24T04:52:00;96561.03;;;24.58;68.95
44001;BME280;29660;42.892;24.710;2023-06-24T04:57:27;96957.94;;;27.46;68.54
44001;BME280;29660;42.892;24.710;2023-06-24T05:02:50;96993.13;;;28.25;63.61
44001;BME280;29660;42.892;24.710;2023-06-24T05:08:12;96672.81;;;25.76;66.59
44001;BME280;29660;42.892;24.710;2023-06-24T05:13:34;96748.84;;;26.16;67.18
44001;BME280;29660;42.892;24.710;2023-06-24T05:18:56;96929.16;;;26.99;67.14
44001;BME280;29660;42.892;24.710;2023-06-24T05:24:19;96672.09;;;25.18;72.34
44001;BME280;29660;42.892;24.710;2023-06-24T05:29:41;96955.66;;;27.30;70.50
44001;BME280;29660;42.892;24.710;2023-06-24T05:35:04;96616.75;;;25.00;71.05
44001;BME280;29660;42.892;24.710;2023-06-24T05:40:26;96954.19;;;27.04;74.93
44001;BME280;29660;42.892;24.710;2023-06-24T05:45:49;96918.59;;;27.04;74.68
44001;BME280;29660;42.892;24.710;2023-06-24T05:51:11;96746.19;;;25.81;74.28
44001;BME280;29660;42.892;24.710;2023-06-24T05:56:33;96672.09;;;25.50;73.56
44001;BME280;29660;42.892;24.710;2023-06-24T06:01:56;96606.22;;;24.73;76.98
44001;BME280;29660;42.892;24.710;2023-06-24T06:07:18;96368.19;;;23.37;75.47
44001;BME280;29660;42.892;24.710;2023-06-24T06:12:40;96970.19;;;27.20;78.83
44001;BME280;29660;42.892;24.710;2023-06-24T06:18:02;96700.19;;;25.33;79.15
44001;BME280;29660;42.892;24.710;2023-06-24T06:23:24;96994.47;;;27.00;79.48
44001;BME280;29660;42.892;24.710;2023-06-24T06:28:50;96657.66;;;24.82;82.08
44001;BME280;29660;42.892;24.710;2023-06-24T06:34:13;96954.19;;;27.04;81.37
44001;BME280;29660;42.892;24.710;2023-06-24T06:39:35;96990.88;;;27.32;81.82
44001;BME280;29660;42.892;24.710;2023-06-24T06:44:57;96793.78;;;26.08;80.87
44001;BME280;29660;42.892;24.710;2023-06-24T06:50:19;96652.22;;;25.39;81.17
44001;BME280;29660;42.892;24.710;2023-06-24T06:55:41;96978.56;;;27.72;79.87
44001;BME280;29660;42.892;24.710;2023-06-24T07:01:04;96833.09;;;26.72;81.07
44001;BME280;29660;42.892;24.710;2023-06-24T07:06:27;96669.69;;;25.74;78.92
44001;BME280;29660;42.892;24.710;2023-06-24T07:11:50;96772.50;;;26.77;78.93
44001;BME280;29660;42.892;24.710;2023-06-24T07:17:12;96657.06;;;26.26;78.50
44001;BME280;29660;42.892;24.710;2023-06-24T07:22:34;96944.56;;;28.22;79.14
44001;BME280;29660;42.892;24.710;2023-06-24T07:27:56;96854.41;;;27.82;80.30
44001;BME280;29660;42.892;24.710;2023-06-24T07:33:19;96698.94;;;26.89;76.50
44001;BME280;29660;42.892;24.710;2023-06-24T07:38:42;96988.72;;;28.83;72.35
44001;BME280;29660;42.892;24.710;2023-06-24T07:44:04;96980.19;;;29.15;65.91
44001;BME280;29660;42.892;24.710;2023-06-24T07:49:26;96653.41;;;27.13;64.29
44001;BME280;29660;42.892;24.710;2023-06-24T07:54:48;96668.84;;;27.38;65.18
44001;BME280;29660;42.892;24.710;2023-06-24T08:00:11;96931.53;;;28.78;66.67
44001;BME280;29660;42.892;24.710;2023-06-24T08:05:37;96672.88;;;27.26;63.96
44001;BME280;29660;42.892;24.710;2023-06-24T08:11:00;97015.38;;;29.62;61.67
44001;BME280;29660;42.892;24.710;2023-06-24T08:16:23;96678.03;;;27.58;67.24
44001;BME280;29660;42.892;24.710;2023-06-24T08:21:45;96991.03;;;29.64;64.92
44001;BME280;29660;42.892;24.710;2023-06-24T08:27:07;97004.84;;;29.87;67.31
44001;BME280;29660;42.892;24.710;2023-06-24T08:32:30;95996.56;;;23.46;67.14
44001;BME280;29660;42.892;24.710;2023-06-24T08:37:52;96645.00;;;27.80;62.43
44001;BME280;29660;42.892;24.710;2023-06-24T08:43:14;96991.31;;;30.00;65.16
44001;BME280;29660;42.892;24.710;2023-06-24T08:48:39;96684.34;;;28.31;61.73
44001;BME280;29660;42.892;24.710;2023-06-24T08:54:06;96636.34;;;28.16;59.80
44001;BME280;29660;42.892;24.710;2023-06-24T08:59:28;96909.56;;;30.00;57.90
44001;BME280;29660;42.892;24.710;2023-06-24T09:04:51;96992.50;;;30.49;55.30
44001;BME280;29660;42.892;24.710;2023-06-24T09:10:39;96979.94;;;30.48;52.48
44001;BME280;29660;42.892;24.710;2023-06-24T09:16:11;96984.50;;;30.59;54.01
44001;BME280;29660;42.892;24.710;2023-06-24T09:21:35;96956.06;;;30.42;53.11
44001;BME280;29660;42.892;24.710;2023-06-24T09:26:57;96952.59;;;30.61;51.30
44001;BME280;29660;42.892;24.710;2023-06-24T09:32:28;96898.91;;;30.02;49.97
44001;BME280;29660;42.892;24.710;2023-06-24T09:37:51;96954.78;;;30.73;49.67
44001;BME280;29660;42.892;24.710;2023-06-24T09:43:20;96943.69;;;30.77;48.28
44001;BME280;29660;42.892;24.710;2023-06-24T09:48:42;96679.34;;;29.10;46.68
44001;BME280;29660;42.892;24.710;2023-06-24T09:54:08;96945.25;;;30.78;45.91
44001;BME280;29660;42.892;24.710;2023-06-24T09:59:31;96702.50;;;29.09;45.74
44001;BME280;29660;42.892;24.710;2023-06-24T10:04:58;96895.34;;;30.52;44.36
44001;BME280;29660;42.892;24.710;2023-06-24T10:10:21;96875.56;;;30.81;45.74
44001;BME280;29660;42.892;24.710;2023-06-24T10:15:43;96928.97;;;31.07;42.86
44001;BME280;29660;42.892;24.710;2023-06-24T10:21:07;96877.19;;;30.98;43.60
44001;BME280;29660;42.892;24.710;2023-06-24T10:26:30;96548.25;;;28.91;43.43
44001;BME280;29660;42.892;24.710;2023-06-24T10:32:01;96875.56;;;31.21;42.89
44001;BME280;29660;42.892;24.710;2023-06-24T10:37:25;96637.91;;;29.48;43.81
44001;BME280;29660;42.892;24.710;2023-06-24T10:42:47;96750.00;;;30.47;43.15
44001;BME280;29660;42.892;24.710;2023-06-24T10:48:14;96607.88;;;29.81;43.99
44001;BME280;29660;42.892;24.710;2023-06-24T10:53:37;96917.84;;;31.87;44.29
44001;BME280;29660;42.892;24.710;2023-06-24T10:58:59;96878.41;;;31.53;47.88
44001;BME280;29660;42.892;24.710;2023-06-24T11:04:21;96869.44;;;31.49;47.59
44001;BME280;29660;42.892;24.710;2023-06-24T11:09:51;96594.72;;;29.49;47.81
44001;BME280;29660;42.892;24.710;2023-06-24T11:15:13;96671.41;;;30.06;46.29
44001;BME280;29660;42.892;24.710;2023-06-24T11:20:39;96893.06;;;31.67;51.26
44001;BME280;29660;42.892;24.710;2023-06-24T11:26:03;96598.56;;;29.95;49.23
44001;BME280;29660;42.892;24.710;2023-06-24T11:31:25;96564.25;;;29.83;49.75
44001;BME280;29660;42.892;24.710;2023-06-24T11:36:48;96562.66;;;30.02;48.22
44001;BME280;29660;42.892;24.710;2023-06-24T11:42:11;96786.91;;;31.59;46.90
44001;BME280;29660;42.892;24.710;2023-06-24T11:47:34;96359.97;;;28.74;46.52
44001;BME280;29660;42.892;24.710;2023-06-24T11:52:57;96646.53;;;30.86;44.61
44001;BME280;29660;42.892;24.710;2023-06-24T11:58:20;96801.06;;;31.93;45.67
44001;BME280;29660;42.892;24.710;2023-06-24T12:03:42;96836.97;;;32.22;43.78
44001;BME280;29660;42.892;24.710;2023-06-24T12:09:04;96876.50;;;32.03;44.19
44001;BME280;29660;42.892;24.710;2023-06-24T12:14:27;96514.03;;;29.79;43.14
44001;BME280;29660;42.892;24.710;2023-06-24T12:19:49;96838.19;;;32.21;42.98
44001;BME280;29660;42.892;24.710;2023-06-24T12:25:12;96822.19;;;32.29;42.10
44001;BME280;29660;42.892;24.710;2023-06-24T12:30:34;96686.06;;;31.45;40.95
44001;BME280;29660;42.892;24.710;2023-06-24T12:35:58;96753.13;;;31.87;38.60
44001;BME280;29660;42.892;24.710;2023-06-24T12:41:20;96776.56;;;31.79;38.10
44001;BME280;29660;42.892;24.710;2023-06-24T12:46:43;96499.25;;;29.73;39.32
44001;BME280;29660;42.892;24.710;2023-06-24T12:52:05;96701.31;;;31.17;37.85
44001;BME280;29660;42.892;24.710;2023-06-24T12:57:28;96747.31;;;31.36;37.39
44001;BME280;29660;42.892;24.710;2023-06-24T13:02:50;96508.34;;;29.70;41.23
44001;BME280;29660;42.892;24.710;2023-06-24T13:08:13;96743.75;;;31.36;41.61
44001;BME280;29660;42.892;24.710;2023-06-24T13:13:36;96483.31;;;29.84;40.69
44001;BME280;29660;42.892;24.710;2023-06-24T13:18:58;96782.69;;;31.87;42.42
44001;BME280;29660;42.892;24.710;2023-06-24T13:24:20;96699.22;;;31.21;40.95
44001;BME280;29660;42.892;24.710;2023-06-24T13:29:42;96722.56;;;30.80;43.60
44001;BME280;29660;42.892;24.710;2023-06-24T13:35:05;96698.09;;;30.06;44.35
44001;BME280;29660;42.892;24.710;2023-06-24T13:40:28;96797.59;;;30.24;43.12
44001;BME280;29660;42.892;24.710;2023-06-24T13:45:51;96832.97;;;30.46;43.19
44001;BME280;29660;42.892;24.710;2023-06-24T13:51:13;96747.09;;;29.91;45.13
44001;BME280;29660;42.892;24.710;2023-06-24T13:56:35;96807.69;;;30.31;45.61
44001;BME280;29660;42.892;24.710;2023-06-24T14:01:58;96811.09;;;30.15;48.83
44001;BME280;29660;42.892;24.710;2023-06-24T14:07:20;96852.91;;;29.83;52.89
44001;BME280;29660;42.892;24.710;2023-06-24T14:12:42;96808.50;;;29.03;62.09
44001;BME280;29660;42.892;24.710;2023-06-24T14:18:04;96797.44;;;28.76;64.21
44001;BME280;29660;42.892;24.710;2023-06-24T14:23:28;96590.88;;;27.12;67.62
44001;BME280;29660;42.892;24.710;2023-06-24T14:28:50;96569.28;;;26.73;71.78
44001;BME280;29660;42.892;24.710;2023-06-24T14:34:12;96887.78;;;28.63;73.73
44001;BME280;29660;42.892;24.710;2023-06-24T14:39:34;96794.19;;;28.17;70.58
44001;BME280;29660;42.892;24.710;2023-06-24T14:44:57;96830.16;;;28.26;72.83
44001;BME280;29660;42.892;24.710;2023-06-24T14:50:19;96558.91;;;26.50;73.81
44001;BME280;29660;42.892;24.710;2023-06-24T14:55:41;96915.94;;;28.68;74.76
44001;BME280;29660;42.892;24.710;2023-06-24T15:01:03;96512.47;;;26.39;76.18
44001;BME280;29660;42.892;24.710;2023-06-24T15:06:25;96468.19;;;26.10;72.14
44001;BME280;29660;42.892;24.710;2023-06-24T15:11:48;96781.66;;;28.16;74.84
44001;BME280;29660;42.892;24.710;2023-06-24T15:17:10;96830.00;;;28.40;75.46
44001;BME280;29660;42.892;24.710;2023-06-24T15:22:32;96591.25;;;26.62;74.64
44001;BME280;29660;42.892;24.710;2023-06-24T15:27:54;96824.91;;;27.97;78.30
44001;BME280;29660;42.892;24.710;2023-06-24T15:33:17;96820.00;;;27.78;80.56
44001;BME280;29660;42.892;24.710;2023-06-24T15:38:39;96617.63;;;26.24;81.60
44001;BME280;29660;42.892;24.710;2023-06-24T15:44:05;96900.16;;;27.89;81.50
44001;BME280;29660;42.892;24.710;2023-06-24T15:49:27;96774.66;;;27.10;83.22
44001;BME280;29660;42.892;24.710;2023-06-24T15:54:49;96832.81;;;27.36;86.26
44001;BME280;29660;42.892;24.710;2023-06-24T16:00:12;96872.50;;;27.65;84.12
44001;BME280;29660;42.892;24.710;2023-06-24T16:05:34;96572.22;;;25.56;86.00
44001;BME280;29660;42.892;24.710;2023-06-24T16:10:59;96553.56;;;25.30;85.41
44001;BME280;29660;42.892;24.710;2023-06-24T16:16:22;96839.94;;;27.19;84.67
44001;BME280;29660;42.892;24.710;2023-06-24T16:21:46;96264.41;;;23.35;85.83
44001;BME280;29660;42.892;24.710;2023-06-24T16:27:08;96797.50;;;26.75;86.28
44001;BME280;29660;42.892;24.710;2023-06-24T16:32:31;96513.50;;;24.77;85.08
44001;BME280;29660;42.892;24.710;2023-06-24T16:37:53;96508.03;;;24.66;85.47
44001;BME280;29660;42.892;24.710;2023-06-24T16:43:15;96556.31;;;24.80;86.74
44001;BME280;29660;42.892;24.710;2023-06-24T16:48:37;96722.41;;;25.81;88.89
44001;BME280;29660;42.892;24.710;2023-06-24T16:53:59;96603.47;;;24.94;91.90
44001;BME280;29660;42.892;24.710;2023-06-24T16:59:22;96633.91;;;24.96;91.14
44001;BME280;29660;42.892;24.710;2023-06-24T17:04:44;96865.97;;;26.43;93.76
44001;BME280;29660;42.892;24.710;2023-06-24T17:10:06;96895.69;;;26.37;97.89
44001;BME280;29660;42.892;24.710;2023-06-24T17:15:28;96854.28;;;25.75;100.00
44001;BME280;29660;42.892;24.710;2023-06-24T17:20:50;96909.75;;;26.07;97.92
44001;BME280;29660;42.892;24.710;2023-06-24T17:26:13;96552.13;;;23.52;100.00
44001;BME280;29660;42.892;24.710;2023-06-24T17:31:35;96561.06;;;23.49;100.00
44001;BME280;29660;42.892;24.710;2023-06-24T17:36:57;96909.28;;;25.52;100.00
44001;BME280;29660;42.892;24.710;2023-06-24T17:42:19;96539.63;;;22.82;100.00
44001;BME280;29660;42.892;24.710;2023-06-24T17:47:41;96922.38;;;25.10;100.00
44001;BME280;29660;42.892;24.710;2023-06-24T17:53:04;96836.28;;;24.40;100.00
44001;BME280;29660;42.892;24.710;2023-06-24T17:58:26;96923.78;;;24.83;100.00
44001;BME280;29660;42.892;24.710;2023-06-24T18:03:48;96570.66;;;22.29;100.00
44001;BME280;29660;42.892;24.710;2023-06-24T18:09:11;96490.09;;;21.36;100.00
44001;BME280;29660;42.892;24.710;2023-06-24T18:14:34;96596.84;;;21.80;100.00
44001;BME280;29660;42.892;24.710;2023-06-24T18:19:56;96574.88;;;21.59;100.00
44001;BME280;29660;42.892;24.710;2023-06-24T18:25:18;96593.38;;;21.50;100.00
44001;BME280;29660;42.892;24.710;2023-06-24T18:30:40;96619.91;;;21.64;100.00
44001;BME280;29660;42.892;24.710;2023-06-24T18:36:02;96647.47;;;21.66;100.00
44001;BME280;29660;42.892;24.710;2023-06-24T18:41:25;96584.97;;;21.05;100.00
44001;BME280;29660;42.892;24.710;2023-06-24T18:46:47;96619.63;;;20.93;100.00
44001;BME280;29660;42.892;24.710;2023-06-24T18:52:10;96670.63;;;21.33;100.00
44001;BME280;29660;42.892;24.710;2023-06-24T18:57:32;96932.63;;;23.02;100.00
44001;BME280;29660;42.892;24.710;2023-06-24T19:02:55;96974.84;;;23.22;100.00
44001;BME280;29660;42.892;24.710;2023-06-24T19:08:17;96942.47;;;22.84;100.00
44001;BME280;29660;42.892;24.710;2023-06-24T19:13:39;96535.00;;;20.11;100.00
44001;BME280;29660;42.892;24.710;2023-06-24T19:19:01;96636.25;;;20.68;100.00
44001;BME280;29660;42.892;24.710;2023-06-24T19:24:24;96548.53;;;20.11;100.00
44001;BME280;29660;42.892;24.710;2023-06-24T19:29:46;96718.13;;;21.00;100.00
44001;BME280;29660;42.892;24.710;2023-06-24T19:35:25;96654.03;;;20.46;100.00
44001;BME280;29660;42.892;24.710;2023-06-24T19:40:48;96884.84;;;21.95;100.00
44001;BME280;29660;42.892;24.710;2023-06-24T19:46:10;96868.31;;;21.80;100.00
44001;BME280;29660;42.892;24.710;2023-06-24T19:51:32;96959.34;;;22.43;100.00
44001;BME280;29660;42.892;24.710;2023-06-24T19:56:55;96548.03;;;19.63;100.00
44001;BME280;29660;42.892;24.710;2023-06-24T20:02:17;96482.09;;;19.32;100.00
44001;BME280;29660;42.892;24.710;2023-06-24T20:07:39;96865.41;;;21.93;100.00
44001;BME280;29660;42.892;24.710;2023-06-24T20:13:01;96858.72;;;21.87;100.00
44001;BME280;29660;42.892;24.710;2023-06-24T20:18:23;96975.38;;;22.48;100.00
44001;BME280;29660;42.892;24.710;2023-06-24T20:23:46;96951.47;;;22.35;100.00
44001;BME280;29660;42.892;24.710;2023-06-24T20:29:08;96962.31;;;22.35;100.00
44001;BME280;29660;42.892;24.710;2023-06-24T20:34:30;96865.53;;;21.77;100.00
44001;BME280;29660;42.892;24.710;2023-06-24T20:39:52;97004.28;;;22.60;100.00
44001;BME280;29660;42.892;24.710;2023-06-24T20:45:14;96857.94;;;21.63;100.00
44001;BME280;29660;42.892;24.710;2023-06-24T20:50:39;96957.84;;;22.00;100.00
44001;BME280;29660;42.892;24.710;2023-06-24T20:56:01;96628.19;;;19.71;100.00
44001;BME280;29660;42.892;24.710;2023-06-24T21:01:23;96657.97;;;19.91;100.00
44001;BME280;29660;42.892;24.710;2023-06-24T21:06:46;97020.59;;;22.14;100.00
44001;BME280;29660;42.892;24.710;2023-06-24T21:12:08;97023.31;;;22.14;100.00
44001;BME280;29660;42.892;24.710;2023-06-24T21:17:30;96959.06;;;21.79;100.00
44001;BME280;29660;42.892;24.710;2023-06-24T21:22:52;96695.00;;;19.86;100.00
44001;BME280;29660;42.892;24.710;2023-06-24T21:28:15;97037.75;;;21.99;100.00
44001;BME280;29660;42.892;24.710;2023-06-24T21:33:37;96698.00;;;19.81;100.00
44001;BME280;29660;42.892;24.710;2023-06-24T21:39:02;96779.00;;;20.45;100.00
44001;BME280;29660;42.892;24.710;2023-06-24T21:44:24;96917.38;;;21.29;100.00
44001;BME280;29660;42.892;24.710;2023-06-24T21:49:47;97060.41;;;22.06;100.00
44001;BME280;29660;42.892;24.710;2023-06-24T21:55:09;96998.34;;;21.86;100.00
44001;BME280;29660;42.892;24.710;2023-06-24T22:00:31;97033.72;;;22.12;100.00
44001;BME280;29660;42.892;24.710;2023-06-24T22:05:53;96740.63;;;20.23;100.00
44001;BME280;29660;42.892;24.710;2023-06-24T22:11:15;96667.63;;;19.72;100.00
44001;BME280;29660;42.892;24.710;2023-06-24T22:16:37;96988.53;;;21.81;100.00
44001;BME280;29660;42.892;24.710;2023-06-24T22:22:00;97013.13;;;21.88;100.00
44001;BME280;29660;42.892;24.710;2023-06-24T22:27:22;96667.94;;;19.51;100.00
44001;BME280;29660;42.892;24.710;2023-06-24T22:32:44;97034.50;;;21.90;100.00
44001;BME280;29660;42.892;24.710;2023-06-24T22:38:06;96655.34;;;19.59;100.00
44001;BME280;29660;42.892;24.710;2023-06-24T22:43:28;96958.25;;;21.37;100.00
44001;BME280;29660;42.892;24.710;2023-06-24T22:48:51;96893.72;;;20.88;100.00
44001;BME280;29660;42.892;24.710;2023-06-24T22:54:13;96927.09;;;20.92;100.00
44001;BME280;29660;42.892;24.710;2023-06-24T22:59:36;96956.00;;;21.03;100.00
44001;BME280;29660;42.892;24.710;2023-06-24T23:04:58;96538.59;;;18.20;100.00
44001;BME280;29660;42.892;24.710;2023-06-24T23:10:21;96944.28;;;20.80;100.00
44001;BME280;29660;42.892;24.710;2023-06-24T23:15:44;96945.34;;;20.75;100.00
44001;BME280;29660;42.892;24.710;2023-06-24T23:21:07;96332.16;;;16.62;100.00
44001;BME280;29660;42.892;24.710;2023-06-24T23:26:29;97016.00;;;21.02;100.00
44001;BME280;29660;42.892;24.710;2023-06-24T23:31:57;96692.84;;;18.94;100.00
44001;BME280;29660;42.892;24.710;2023-06-24T23:37:20;96609.97;;;18.22;100.00
44001;BME280;29660;42.892;24.710;2023-06-24T23:42:44;97047.38;;;20.83;100.00
44001;BME280;29660;42.892;24.710;2023-06-24T23:48:07;96988.44;;;20.80;100.00
44001;BME280;29660;42.892;24.710;2023-06-24T23:53:29;96916.78;;;20.46;100.00
44001;BME280;29660;42.892;24.710;2023-06-24T23:58:51;96986.03;;;20.95;100.00
